Aérodrome :
LOGIN :

S'inscrire | Disclaimer

   EN    FR    IT 

 










Légende :    VFR   VFR Marginal   IFR   IFR Intensif   IFR Très Intensif
Visi : 
Plafond : 
>= 8 km
>= 3000ft
5 à 8 km
1000 à 3000 ft
1500m à 5 km
500 à 1000 ft
800 à 1500m
200 à 500 ft
< 800m
< 200 ft
Symboles :   Orages  Brouillard  Fortes neiges  Fortes précipitations  Vent > 20 kt
SIGMETs :   Divers  Orages  Givrage  Turbulence  Onde Orograph.  Cendres Volcan.







- Altitude de l'aérodrome : 768 ft
- Code IATA : MXP


LIMC - Milano Malpensa

DERNIER METAR :
  • 232250Z 03004KT CAVOK 20/17 Q1019 NOSIG

METARs EXPIRÉS :
  • 232220Z 36004KT CAVOK 20/16 Q1019 NOSIG
  • 232150Z 03003KT CAVOK 19/16 Q1019 NOSIG
  • 232120Z 02004KT CAVOK 21/17 Q1019 NOSIG
  • 232050Z 03005KT CAVOK 21/17 Q1019 NOSIG
  • 232020Z 01005KT CAVOK 21/17 Q1018 NOSIG

TAF TAF LIMC
Valide du 23 à 18h jusqu'au 25 à 00h UTC


231700Z 2318/2424 VRB05KT CAVOK
Pas de NOTAMs connus pour ce terrain.



MET'MAP, la Météo Aéronautique d'un coup d'oeil ! - Copyright ORBIFLY Décembre 2007 - Disclaimer

ORBIFLY MET'MAP TEAM :

Programmation & Développement : Alexandra Zaïnal
Conception & Développement : Baudouin d'Aumeries
Co-Programmation & Développement : Marc-Olivier Méhu
Soutien technique & logistique : Manuel Goepfert

Contact : metmap@orbifly.com




SOURCES & CREDITS :

   NOAA